CGNBR FGAN-FPST
Flight info
| Callsign | CGNBR |
|---|---|
| Flight time | 0h 49m |
| Altitude | 2500 |
| Route | DIRECT |
| Aircraft | BE58/L-V/N |
Departure
| Time | 2026-04-20 18:07 |
|---|---|
| Airport | Annobón Airport (FGAN) |
Arrival
| Time | 2026-04-20 18:56 |
|---|---|
| Airport | São Tomé International Airport (FPST) |
| Time | Latitude | Longitude | Altitude | Speed | Heading |
|---|---|---|---|---|---|
| 2026-04-20 17:41 | -1.40692 | 5.62476 | 85 ft | 0 kts | 171° |
| 2026-04-20 18:02 | -1.40763 | 5.62458 | 85 ft | 18 kts | 225° |
| 2026-04-20 18:02 | -1.40762 | 5.62510 | 86 ft | 24 kts | 43° |
| 2026-04-20 18:02 | -1.40643 | 5.62644 | 86 ft | 23 kts | 51° |
| 2026-04-20 18:03 | -1.40535 | 5.62761 | 85 ft | 27 kts | 47° |
| 2026-04-20 18:03 | -1.40375 | 5.62949 | 85 ft | 42 kts | 49° |
| 2026-04-20 18:03 | -1.40288 | 5.63063 | 85 ft | 13 kts | 131° |
| 2026-04-20 18:03 | -1.40308 | 5.63061 | 86 ft | 0 kts | 228° |
| 2026-04-20 18:04 | -1.40303 | 5.63057 | 86 ft | 0 kts | 228° |
| 2026-04-20 18:05 | -1.40320 | 5.63036 | 87 ft | 0 kts | 230° |
| 2026-04-20 18:06 | -1.40389 | 5.62950 | 86 ft | 57 kts | 231° |
| 2026-04-20 18:06 | -1.40823 | 5.62470 | 141 ft | 119 kts | 230° |
| 2026-04-20 18:06 | -1.41338 | 5.61821 | 636 ft | 122 kts | 223° |
| 2026-04-20 18:07 | -1.41766 | 5.61045 | 985 ft | 141 kts | 261° |
| 2026-04-20 18:07 | -1.41541 | 5.60092 | 1502 ft | 145 kts | 300° |
| 2026-04-20 18:07 | -1.40686 | 5.59531 | 1835 ft | 159 kts | 351° |
| 2026-04-20 18:07 | -1.39575 | 5.59756 | 2033 ft | 172 kts | 31° |
| 2026-04-20 18:08 | -1.38699 | 5.60592 | 2091 ft | 181 kts | 56° |
| 2026-04-20 18:08 | -1.37924 | 5.61620 | 2098 ft | 189 kts | 57° |
| 2026-04-20 18:08 | -1.37124 | 5.62692 | 2097 ft | 195 kts | 57° |
| 2026-04-20 18:08 | -1.36311 | 5.63794 | 2085 ft | 198 kts | 57° |
| 2026-04-20 18:09 | -1.35532 | 5.64872 | 2062 ft | 185 kts | 61° |
| 2026-04-20 18:09 | -1.34828 | 5.65914 | 2031 ft | 179 kts | 56° |
| 2026-04-20 18:09 | -1.33929 | 5.66743 | 2002 ft | 178 kts | 37° |
| 2026-04-20 18:09 | -1.32894 | 5.67405 | 1969 ft | 171 kts | 35° |
| 2026-04-20 18:10 | -1.31916 | 5.68012 | 1930 ft | 161 kts | 35° |
| 2026-04-20 18:10 | -1.30990 | 5.68601 | 1888 ft | 155 kts | 36° |
| 2026-04-20 18:10 | -1.30095 | 5.69173 | 1847 ft | 150 kts | 37° |
| 2026-04-20 18:10 | -1.29224 | 5.69730 | 1809 ft | 146 kts | 38° |
| 2026-04-20 18:11 | -1.28380 | 5.70269 | 1796 ft | 141 kts | 37° |
| 2026-04-20 18:11 | -1.27568 | 5.70788 | 1794 ft | 137 kts | 37° |
| 2026-04-20 18:11 | -1.26797 | 5.71281 | 1795 ft | 130 kts | 39° |
| 2026-04-20 18:11 | -1.26054 | 5.71754 | 1798 ft | 123 kts | 39° |
| 2026-04-20 18:12 | -1.25292 | 5.72245 | 1817 ft | 144 kts | 37° |
| 2026-04-20 18:12 | -1.24385 | 5.72829 | 1822 ft | 164 kts | 36° |
| 2026-04-20 18:12 | -1.23381 | 5.73469 | 1829 ft | 176 kts | 36° |
| 2026-04-20 18:12 | -1.22318 | 5.74148 | 1820 ft | 184 kts | 36° |
| 2026-04-20 18:13 | -1.21221 | 5.74847 | 1819 ft | 190 kts | 36° |
| 2026-04-20 18:13 | -1.20100 | 5.75563 | 1817 ft | 192 kts | 36° |
| 2026-04-20 18:13 | -1.18972 | 5.76283 | 1814 ft | 193 kts | 36° |
| 2026-04-20 18:13 | -1.17836 | 5.77009 | 1817 ft | 194 kts | 35° |
| 2026-04-20 18:14 | -1.16711 | 5.77727 | 1812 ft | 194 kts | 35° |
| 2026-04-20 18:14 | -1.15577 | 5.78452 | 1813 ft | 194 kts | 36° |
| 2026-04-20 18:14 | -1.14438 | 5.79180 | 1817 ft | 195 kts | 34° |
| 2026-04-20 18:14 | -1.13292 | 5.79912 | 1815 ft | 195 kts | 35° |
| 2026-04-20 18:15 | -1.12147 | 5.80643 | 1814 ft | 196 kts | 35° |
| 2026-04-20 18:15 | -1.10998 | 5.81378 | 1813 ft | 195 kts | 35° |
| 2026-04-20 18:15 | -1.09856 | 5.82106 | 1813 ft | 194 kts | 36° |
| 2026-04-20 18:15 | -1.08718 | 5.82833 | 1816 ft | 194 kts | 36° |
| 2026-04-20 18:16 | -1.07580 | 5.83560 | 1815 ft | 194 kts | 35° |
| 2026-04-20 18:16 | -1.06446 | 5.84284 | 1816 ft | 193 kts | 36° |
| 2026-04-20 18:16 | -1.05328 | 5.84998 | 1816 ft | 193 kts | 36° |
| 2026-04-20 18:16 | -1.04185 | 5.85742 | 1815 ft | 194 kts | 37° |
| 2026-04-20 18:17 | -1.03069 | 5.86463 | 1815 ft | 193 kts | 36° |
| 2026-04-20 18:17 | -1.01925 | 5.87183 | 1814 ft | 194 kts | 36° |
| 2026-04-20 18:17 | -1.00783 | 5.87904 | 1812 ft | 194 kts | 35° |
| 2026-04-20 18:17 | -0.99643 | 5.88631 | 1811 ft | 194 kts | 37° |
| 2026-04-20 18:18 | -0.98504 | 5.89360 | 1811 ft | 194 kts | 36° |
| 2026-04-20 18:18 | -0.97371 | 5.90083 | 1809 ft | 193 kts | 36° |
| 2026-04-20 18:18 | -0.96240 | 5.90805 | 1810 ft | 193 kts | 35° |
| 2026-04-20 18:18 | -0.95103 | 5.91531 | 1812 ft | 194 kts | 35° |
| 2026-04-20 18:19 | -0.93964 | 5.92258 | 1814 ft | 195 kts | 34° |
| 2026-04-20 18:19 | -0.92833 | 5.92980 | 1815 ft | 195 kts | 36° |
| 2026-04-20 18:19 | -0.91692 | 5.93709 | 1815 ft | 195 kts | 35° |
| 2026-04-20 18:19 | -0.90557 | 5.94432 | 1880 ft | 191 kts | 36° |
| 2026-04-20 18:20 | -0.89454 | 5.95136 | 1986 ft | 187 kts | 36° |
| 2026-04-20 18:20 | -0.88353 | 5.95841 | 1992 ft | 189 kts | 36° |
| 2026-04-20 18:20 | -0.87236 | 5.96555 | 1994 ft | 191 kts | 35° |
| 2026-04-20 18:20 | -0.86113 | 5.97271 | 1996 ft | 192 kts | 36° |
| 2026-04-20 18:21 | -0.84981 | 5.97995 | 1999 ft | 194 kts | 35° |
| 2026-04-20 18:21 | -0.83847 | 5.98718 | 1998 ft | 193 kts | 36° |
| 2026-04-20 18:21 | -0.82712 | 5.99443 | 1998 ft | 194 kts | 36° |
| 2026-04-20 18:21 | -0.81579 | 6.00167 | 1997 ft | 193 kts | 36° |
| 2026-04-20 18:22 | -0.81042 | 6.00535 | 1908 ft | 197 kts | 38° |
| 2026-04-20 18:22 | -0.79875 | 6.01277 | 1897 ft | 195 kts | 35° |
| 2026-04-20 18:22 | -0.78748 | 6.01984 | 1991 ft | 189 kts | 36° |
| 2026-04-20 18:22 | -0.77637 | 6.02690 | 1992 ft | 190 kts | 36° |
| 2026-04-20 18:23 | -0.76517 | 6.03405 | 1995 ft | 191 kts | 36° |
| 2026-04-20 18:23 | -0.75391 | 6.04125 | 1997 ft | 193 kts | 35° |
| 2026-04-20 18:23 | -0.74256 | 6.04848 | 1997 ft | 194 kts | 35° |
| 2026-04-20 18:23 | -0.73119 | 6.05573 | 1997 ft | 194 kts | 36° |
| 2026-04-20 18:24 | -0.71997 | 6.06289 | 1997 ft | 193 kts | 35° |
| 2026-04-20 18:24 | -0.70866 | 6.07010 | 1994 ft | 191 kts | 36° |
| 2026-04-20 18:24 | -0.69744 | 6.07726 | 1996 ft | 192 kts | 35° |
| 2026-04-20 18:24 | -0.68616 | 6.08447 | 1999 ft | 193 kts | 35° |
| 2026-04-20 18:25 | -0.67482 | 6.09171 | 1999 ft | 193 kts | 35° |
| 2026-04-20 18:25 | -0.66348 | 6.09894 | 2002 ft | 194 kts | 35° |
| 2026-04-20 18:25 | -0.65214 | 6.10618 | 2001 ft | 193 kts | 35° |
| 2026-04-20 18:25 | -0.64085 | 6.11339 | 2002 ft | 193 kts | 35° |
| 2026-04-20 18:26 | -0.62949 | 6.12065 | 2001 ft | 194 kts | 35° |
| 2026-04-20 18:26 | -0.61812 | 6.12790 | 2001 ft | 194 kts | 35° |
| 2026-04-20 18:26 | -0.60678 | 6.13514 | 2002 ft | 193 kts | 36° |
| 2026-04-20 18:26 | -0.59548 | 6.14236 | 2002 ft | 193 kts | 36° |
| 2026-04-20 18:27 | -0.58417 | 6.14958 | 2002 ft | 193 kts | 36° |
| 2026-04-20 18:27 | -0.57287 | 6.15680 | 2000 ft | 192 kts | 35° |
| 2026-04-20 18:27 | -0.56157 | 6.16401 | 2002 ft | 193 kts | 36° |
| 2026-04-20 18:27 | -0.55023 | 6.17126 | 2000 ft | 194 kts | 35° |
| 2026-04-20 18:28 | -0.53886 | 6.17851 | 1998 ft | 194 kts | 36° |
| 2026-04-20 18:28 | -0.52752 | 6.18575 | 1999 ft | 193 kts | 36° |
| 2026-04-20 18:28 | -0.51634 | 6.19289 | 1996 ft | 193 kts | 36° |
| 2026-04-20 18:28 | -0.50507 | 6.20009 | 1998 ft | 192 kts | 36° |
| 2026-04-20 18:29 | -0.49377 | 6.20731 | 1999 ft | 193 kts | 35° |
| 2026-04-20 18:29 | -0.48249 | 6.21450 | 2000 ft | 193 kts | 35° |
| 2026-04-20 18:29 | -0.47114 | 6.22176 | 1997 ft | 194 kts | 35° |
| 2026-04-20 18:29 | -0.45978 | 6.22901 | 2000 ft | 194 kts | 36° |
| 2026-04-20 18:30 | -0.44841 | 6.23626 | 1998 ft | 194 kts | 36° |
| 2026-04-20 18:30 | -0.43694 | 6.24359 | 1999 ft | 196 kts | 35° |
| 2026-04-20 18:30 | -0.42549 | 6.25090 | 2000 ft | 199 kts | 36° |
| 2026-04-20 18:30 | -0.41390 | 6.25830 | 2002 ft | 197 kts | 35° |
| 2026-04-20 18:31 | -0.40234 | 6.26569 | 2003 ft | 198 kts | 35° |
| 2026-04-20 18:31 | -0.39071 | 6.27311 | 2005 ft | 199 kts | 35° |
| 2026-04-20 18:31 | -0.37906 | 6.28055 | 2007 ft | 199 kts | 35° |
| 2026-04-20 18:31 | -0.36742 | 6.28798 | 2008 ft | 199 kts | 35° |
| 2026-04-20 18:32 | -0.35573 | 6.29545 | 2010 ft | 199 kts | 34° |
| 2026-04-20 18:32 | -0.34407 | 6.30289 | 2012 ft | 199 kts | 35° |
| 2026-04-20 18:32 | -0.33240 | 6.31035 | 2011 ft | 199 kts | 34° |
| 2026-04-20 18:32 | -0.32076 | 6.31777 | 2014 ft | 198 kts | 35° |
| 2026-04-20 18:33 | -0.30914 | 6.32519 | 2012 ft | 198 kts | 35° |
| 2026-04-20 18:33 | -0.29753 | 6.33261 | 2015 ft | 198 kts | 35° |
| 2026-04-20 18:33 | -0.28587 | 6.34006 | 2012 ft | 198 kts | 35° |
| 2026-04-20 18:33 | -0.27426 | 6.34746 | 2014 ft | 198 kts | 35° |
| 2026-04-20 18:34 | -0.26264 | 6.35489 | 2010 ft | 198 kts | 35° |
| 2026-04-20 18:34 | -0.25106 | 6.36227 | 2009 ft | 197 kts | 36° |
| 2026-04-20 18:34 | -0.23964 | 6.36957 | 2007 ft | 197 kts | 36° |
| 2026-04-20 18:34 | -0.22806 | 6.37697 | 2006 ft | 197 kts | 36° |
| 2026-04-20 18:35 | -0.21651 | 6.38435 | 2008 ft | 196 kts | 35° |
| 2026-04-20 18:35 | -0.20515 | 6.39158 | 2004 ft | 191 kts | 36° |
| 2026-04-20 18:35 | -0.19405 | 6.39867 | 1999 ft | 188 kts | 35° |
| 2026-04-20 18:35 | -0.18309 | 6.40567 | 1998 ft | 186 kts | 35° |
| 2026-04-20 18:36 | -0.17223 | 6.41260 | 1999 ft | 185 kts | 36° |
| 2026-04-20 18:36 | -0.16140 | 6.41952 | 1998 ft | 185 kts | 36° |
| 2026-04-20 18:36 | -0.15063 | 6.42640 | 2001 ft | 183 kts | 35° |
| 2026-04-20 18:36 | -0.13988 | 6.43326 | 2002 ft | 183 kts | 35° |
| 2026-04-20 18:37 | -0.12910 | 6.44015 | 2002 ft | 185 kts | 35° |
| 2026-04-20 18:37 | -0.11825 | 6.44708 | 2000 ft | 185 kts | 36° |
| 2026-04-20 18:37 | -0.10742 | 6.45399 | 2004 ft | 184 kts | 35° |
| 2026-04-20 18:37 | -0.09661 | 6.46089 | 2001 ft | 185 kts | 36° |
| 2026-04-20 18:38 | -0.08583 | 6.46777 | 2008 ft | 184 kts | 35° |
| 2026-04-20 18:38 | -0.07515 | 6.47459 | 2007 ft | 185 kts | 36° |
| 2026-04-20 18:38 | -0.06431 | 6.48152 | 2006 ft | 184 kts | 35° |
| 2026-04-20 18:38 | -0.05356 | 6.48838 | 2005 ft | 183 kts | 36° |
| 2026-04-20 18:39 | -0.04282 | 6.49524 | 2004 ft | 184 kts | 36° |
| 2026-04-20 18:39 | -0.03204 | 6.50212 | 2004 ft | 184 kts | 35° |
| 2026-04-20 18:39 | -0.02306 | 6.51081 | 1152 ft | 201 kts | 86° |
| 2026-04-20 18:39 | -0.02932 | 6.52408 | 699 ft | 203 kts | 121° |
| 2026-04-20 18:40 | -0.02244 | 6.53009 | 612 ft | 203 kts | 328° |
| 2026-04-20 18:40 | -0.00969 | 6.52271 | 432 ft | 216 kts | 330° |
| 2026-04-20 18:40 | 0.00333 | 6.51921 | 540 ft | 193 kts | 44° |
| 2026-04-20 18:40 | 0.01220 | 6.52937 | 331 ft | 210 kts | 54° |
| 2026-04-20 18:41 | 0.01666 | 6.54315 | 53 ft | 214 kts | 97° |
| 2026-04-20 18:41 | 0.01748 | 6.55754 | 237 ft | 207 kts | 72° |
| 2026-04-20 18:41 | 0.02494 | 6.56963 | 407 ft | 202 kts | 65° |
| 2026-04-20 18:41 | 0.02698 | 6.58304 | 567 ft | 196 kts | 98° |
| 2026-04-20 18:42 | 0.02488 | 6.59645 | 729 ft | 194 kts | 102° |
| 2026-04-20 18:42 | 0.02372 | 6.60531 | 831 ft | 194 kts | 99° |
| 2026-04-20 18:42 | 0.02250 | 6.61857 | 997 ft | 190 kts | 98° |
| 2026-04-20 18:42 | 0.02140 | 6.63171 | 1161 ft | 189 kts | 98° |
| 2026-04-20 18:43 | 0.02022 | 6.64494 | 1188 ft | 195 kts | 98° |
| 2026-04-20 18:43 | 0.01890 | 6.65874 | 1141 ft | 202 kts | 99° |
| 2026-04-20 18:43 | 0.01773 | 6.67291 | 1097 ft | 206 kts | 97° |
| 2026-04-20 18:43 | 0.01651 | 6.68725 | 1055 ft | 208 kts | 98° |
| 2026-04-20 18:44 | 0.01521 | 6.70169 | 1016 ft | 209 kts | 98° |
| 2026-04-20 18:44 | 0.01387 | 6.71607 | 1016 ft | 207 kts | 98° |
| 2026-04-20 18:44 | 0.01246 | 6.73042 | 1018 ft | 208 kts | 98° |
| 2026-04-20 18:44 | 0.01109 | 6.74476 | 1012 ft | 207 kts | 99° |
| 2026-04-20 18:45 | 0.00989 | 6.75883 | 1008 ft | 205 kts | 98° |
| 2026-04-20 18:45 | 0.00868 | 6.77303 | 1005 ft | 205 kts | 98° |
| 2026-04-20 18:45 | 0.00742 | 6.78716 | 1005 ft | 204 kts | 98° |
| 2026-04-20 18:45 | 0.00613 | 6.80132 | 1006 ft | 205 kts | 98° |
| 2026-04-20 18:46 | 0.00485 | 6.81558 | 1007 ft | 207 kts | 98° |
| 2026-04-20 18:46 | 0.00740 | 6.82967 | 1008 ft | 213 kts | 64° |
| 2026-04-20 18:46 | 0.01815 | 6.83976 | 1010 ft | 217 kts | 26° |
| 2026-04-20 18:46 | 0.03291 | 6.84164 | 1006 ft | 216 kts | 348° |
| 2026-04-20 18:47 | 0.04722 | 6.83727 | 1015 ft | 215 kts | 339° |
| 2026-04-20 18:47 | 0.06110 | 6.83175 | 1015 ft | 214 kts | 336° |
| 2026-04-20 18:47 | 0.07482 | 6.82572 | 1014 ft | 216 kts | 335° |
| 2026-04-20 18:47 | 0.08842 | 6.81964 | 1010 ft | 217 kts | 335° |
| 2026-04-20 18:48 | 0.10218 | 6.81348 | 1006 ft | 217 kts | 334° |
| 2026-04-20 18:48 | 0.11599 | 6.80730 | 1005 ft | 218 kts | 334° |
| 2026-04-20 18:48 | 0.12987 | 6.80117 | 1003 ft | 218 kts | 335° |
| 2026-04-20 18:48 | 0.14374 | 6.79505 | 997 ft | 218 kts | 335° |
| 2026-04-20 18:49 | 0.15759 | 6.78885 | 992 ft | 218 kts | 334° |
| 2026-04-20 18:49 | 0.17138 | 6.78276 | 988 ft | 215 kts | 336° |
| 2026-04-20 18:49 | 0.18513 | 6.77681 | 992 ft | 217 kts | 335° |
| 2026-04-20 18:49 | 0.19892 | 6.77080 | 986 ft | 215 kts | 335° |
| 2026-04-20 18:50 | 0.21268 | 6.76477 | 985 ft | 217 kts | 335° |
| 2026-04-20 18:50 | 0.22659 | 6.75871 | 987 ft | 219 kts | 335° |
| 2026-04-20 18:50 | 0.24065 | 6.75331 | 972 ft | 206 kts | 342° |
| 2026-04-20 18:50 | 0.25367 | 6.75073 | 962 ft | 179 kts | 356° |
| 2026-04-20 18:51 | 0.26562 | 6.75008 | 957 ft | 161 kts | 359° |
| 2026-04-20 18:51 | 0.27615 | 6.74978 | 950 ft | 143 kts | 358° |
| 2026-04-20 18:51 | 0.28591 | 6.74946 | 956 ft | 142 kts | 357° |
| 2026-04-20 18:51 | 0.29572 | 6.74731 | 958 ft | 146 kts | 342° |
| 2026-04-20 18:52 | 0.30531 | 6.74434 | 964 ft | 147 kts | 342° |
| 2026-04-20 18:52 | 0.31542 | 6.74134 | 972 ft | 157 kts | 341° |
| 2026-04-20 18:52 | 0.32604 | 6.73808 | 975 ft | 161 kts | 341° |
| 2026-04-20 18:52 | 0.33662 | 6.73426 | 971 ft | 163 kts | 323° |
| 2026-04-20 18:53 | 0.34337 | 6.72565 | 975 ft | 158 kts | 294° |
| 2026-04-20 18:53 | 0.34865 | 6.71591 | 972 ft | 161 kts | 295° |
| 2026-04-20 18:53 | 0.35381 | 6.70606 | 968 ft | 158 kts | 294° |
| 2026-04-20 18:53 | 0.35885 | 6.69631 | 961 ft | 156 kts | 294° |
| 2026-04-20 18:54 | 0.36394 | 6.68682 | 970 ft | 157 kts | 294° |
| 2026-04-20 18:54 | 0.36892 | 6.67725 | 968 ft | 154 kts | 295° |
| 2026-04-20 18:54 | 0.37355 | 6.66775 | 953 ft | 149 kts | 294° |
| 2026-04-20 18:54 | 0.37891 | 6.65932 | 896 ft | 148 kts | 330° |
| 2026-04-20 18:55 | 0.38807 | 6.65974 | 908 ft | 132 kts | 26° |
| 2026-04-20 18:55 | 0.39522 | 6.66588 | 820 ft | 135 kts | 67° |
| 2026-04-20 18:55 | 0.39325 | 6.67435 | 627 ft | 139 kts | 126° |
| 2026-04-20 18:55 | 0.38847 | 6.68272 | 690 ft | 136 kts | 118° |
| 2026-04-20 18:56 | 0.38486 | 6.69139 | 418 ft | 135 kts | 115° |
| 2026-04-20 18:56 | 0.38171 | 6.69947 | 193 ft | 115 kts | 109° |
| 2026-04-20 18:56 | 0.37955 | 6.70640 | 44 ft | 91 kts | 100° |
| 2026-04-20 18:56 | 0.37840 | 6.71089 | 31 ft | 37 kts | 115° |
| 2026-04-20 18:57 | 0.37785 | 6.71109 | 31 ft | 12 kts | 218° |
| 2026-04-20 18:57 | 0.37724 | 6.71087 | 32 ft | 7 kts | 194° |
| 2026-04-20 18:57 | 0.37687 | 6.71079 | 32 ft | 4 kts | 186° |
| 2026-04-20 18:57 | 0.37633 | 6.71131 | 31 ft | 24 kts | 115° |
| 2026-04-20 18:58 | 0.37568 | 6.71207 | 30 ft | 12 kts | 106° |
| 2026-04-20 18:58 | 0.37526 | 6.71263 | 29 ft | 9 kts | 127° |
| 2026-04-20 18:58 | 0.37523 | 6.71310 | 29 ft | 0 kts | 82° |
| 2026-04-20 19:22 | 0.37522 | 6.71310 | 29 ft | 0 kts | 281° |